createdAt,value
2022-07-27T00:01:18.442Z,100684.00
2022-07-27T00:03:47.032Z,100680.00
2022-07-27T00:06:16.127Z,100672.00
2022-07-27T00:08:44.237Z,100683.00
2022-07-27T00:11:13.790Z,100683.00
2022-07-27T00:13:41.814Z,100686.00
2022-07-27T00:16:09.821Z,100688.00
2022-07-27T00:18:37.947Z,100685.00
2022-07-27T00:21:06.070Z,100683.00
2022-07-27T00:23:34.393Z,100674.00
2022-07-27T00:26:02.401Z,100685.00
2022-07-27T00:28:30.321Z,100679.00
2022-07-27T00:30:58.414Z,100684.00
2022-07-27T00:33:26.284Z,100683.00
2022-07-27T00:35:54.166Z,100688.00
2022-07-27T00:38:22.222Z,100694.00
2022-07-27T00:40:50.238Z,100691.00
2022-07-27T00:43:18.387Z,100694.00
2022-07-27T00:45:48.729Z,100690.00
2022-07-27T00:48:16.816Z,100695.00
2022-07-27T00:50:45.312Z,100696.00
2022-07-27T00:53:14.034Z,100687.00
2022-07-27T00:55:42.283Z,100696.00
2022-07-27T00:58:10.481Z,100691.00
2022-07-27T01:00:39.322Z,100690.00
2022-07-27T01:03:09.039Z,100686.00
2022-07-27T01:05:43.282Z,100678.00
2022-07-27T01:08:15.536Z,100684.00
2022-07-27T01:10:44.278Z,100691.00
2022-07-27T01:13:13.392Z,100695.00
2022-07-27T01:15:43.502Z,100693.00
2022-07-27T01:18:28.382Z,100690.00
2022-07-27T01:20:57.171Z,100681.00
2022-07-27T01:23:26.276Z,100684.00
2022-07-27T01:25:54.864Z,100683.00
2022-07-27T01:28:22.876Z,100688.00
2022-07-27T01:30:51.622Z,100695.00
2022-07-27T01:33:26.136Z,100694.00
2022-07-27T01:35:55.790Z,100694.00
2022-07-27T01:38:23.864Z,100692.00
2022-07-27T01:40:52.519Z,100687.00
2022-07-27T01:43:21.504Z,100687.00
2022-07-27T01:45:49.959Z,100689.00
2022-07-27T01:48:18.436Z,100680.00
2022-07-27T01:50:47.756Z,100682.00
2022-07-27T01:53:16.096Z,100689.00
2022-07-27T01:55:44.364Z,100689.00
2022-07-27T01:58:12.647Z,100682.00
2022-07-27T02:00:41.078Z,100682.00
2022-07-27T02:03:10.495Z,100680.00
2022-07-27T02:05:40.028Z,100686.00
2022-07-27T02:08:08.673Z,100687.00
2022-07-27T02:11:01.182Z,100681.00
2022-07-27T02:13:29.103Z,100683.00
2022-07-27T02:15:57.347Z,100682.00
2022-07-27T02:18:33.435Z,100679.00
2022-07-27T02:21:06.278Z,100688.00
2022-07-27T02:23:35.349Z,100673.00
2022-07-27T02:26:04.278Z,100680.00
2022-07-27T02:28:32.580Z,100685.00
2022-07-27T02:31:00.719Z,100680.00
2022-07-27T02:33:29.028Z,100681.00
2022-07-27T02:35:56.948Z,100679.00
2022-07-27T02:38:26.132Z,100684.00
2022-07-27T02:40:54.362Z,100687.00
2022-07-27T02:43:23.019Z,100688.00
2022-07-27T02:45:51.650Z,100687.00
2022-07-27T02:48:19.578Z,100685.00
2022-07-27T02:50:47.569Z,100692.00
2022-07-27T02:53:15.457Z,100687.00
2022-07-27T02:55:43.409Z,100679.00
2022-07-27T02:58:11.289Z,100695.00
2022-07-27T03:00:39.136Z,100678.00
2022-07-27T03:03:07.247Z,100686.00
2022-07-27T03:05:35.205Z,100681.00
2022-07-27T03:08:04.319Z,100693.00
2022-07-27T03:10:32.470Z,100687.00
2022-07-27T03:13:00.325Z,100692.00
2022-07-27T03:15:29.881Z,100695.00
2022-07-27T03:17:58.021Z,100691.00
2022-07-27T03:20:25.980Z,100691.00
2022-07-27T03:22:56.649Z,100688.00
2022-07-27T03:25:24.755Z,100691.00
2022-07-27T03:27:52.936Z,100692.00
2022-07-27T03:30:21.058Z,100705.00
2022-07-27T03:32:48.935Z,100701.00
2022-07-27T03:35:16.766Z,100705.00
2022-07-27T03:37:47.831Z,100709.00
2022-07-27T03:40:15.877Z,100706.00
2022-07-27T03:42:43.725Z,100705.00
2022-07-27T03:45:11.656Z,100711.00
2022-07-27T03:47:39.513Z,100704.00
2022-07-27T03:50:07.917Z,100705.00
2022-07-27T03:52:36.015Z,100697.00
2022-07-27T03:55:04.211Z,100703.00
2022-07-27T03:57:32.196Z,100703.00
2022-07-27T04:00:00.320Z,100702.00
2022-07-27T04:02:28.293Z,100699.00
2022-07-27T04:04:56.076Z,100709.00
2022-07-27T04:07:23.955Z,100708.00
2022-07-27T04:09:51.908Z,100709.00
2022-07-27T04:12:20.210Z,100714.00
2022-07-27T04:14:49.335Z,100706.00
2022-07-27T04:17:54.070Z,100708.00
2022-07-27T04:20:05.950Z,100712.00
2022-07-27T04:22:33.828Z,100711.00
2022-07-27T04:25:01.765Z,100719.00
2022-07-27T04:27:29.690Z,100708.00
2022-07-27T04:29:57.541Z,100702.00
2022-07-27T04:32:25.479Z,100705.00
2022-07-27T04:34:53.386Z,100712.00
2022-07-27T04:37:21.306Z,100709.00
2022-07-27T04:39:49.195Z,100710.00
2022-07-27T04:42:17.264Z,100706.00
2022-07-27T04:44:45.100Z,100708.00
2022-07-27T04:47:12.992Z,100709.00
2022-07-27T04:49:41.058Z,100704.00
2022-07-27T04:52:09.044Z,100702.00
2022-07-27T04:54:37.002Z,100708.00
2022-07-27T04:57:05.074Z,100711.00
2022-07-27T04:59:32.954Z,100703.00
2022-07-27T05:02:00.697Z,100710.00
2022-07-27T05:04:28.578Z,100710.00
2022-07-27T05:06:58.371Z,100714.00
2022-07-27T05:09:26.384Z,100719.00
2022-07-27T05:11:54.087Z,100719.00
2022-07-27T05:14:22.163Z,100723.00
2022-07-27T05:16:50.852Z,100724.00
2022-07-27T05:19:18.967Z,100735.00
2022-07-27T05:21:46.835Z,100734.00
2022-07-27T05:24:14.785Z,100736.00
2022-07-27T05:26:44.726Z,100746.00
2022-07-27T05:29:12.908Z,100740.00
2022-07-27T05:31:41.050Z,100743.00
2022-07-27T05:34:09.044Z,100753.00
2022-07-27T05:36:37.145Z,100745.00
2022-07-27T05:39:08.185Z,100738.00
2022-07-27T05:41:39.685Z,100743.00
2022-07-27T05:44:07.723Z,100746.00
2022-07-27T05:46:36.873Z,100753.00
2022-07-27T05:49:06.358Z,100757.00
2022-07-27T05:51:34.582Z,100762.00
2022-07-27T05:54:02.698Z,100768.00
2022-07-27T05:56:30.785Z,100771.00
2022-07-27T05:58:59.373Z,100780.00
2022-07-27T06:01:29.785Z,100775.00
2022-07-27T06:03:57.992Z,100777.00
2022-07-27T06:06:44.405Z,100780.00
2022-07-27T06:09:12.883Z,100776.00
2022-07-27T06:11:41.889Z,100781.00
2022-07-27T06:14:09.904Z,100788.00
2022-07-27T06:16:37.990Z,100786.00
2022-07-27T06:19:06.361Z,100787.00
2022-07-27T06:21:34.255Z,100793.00
2022-07-27T06:24:02.176Z,100792.00
2022-07-27T06:26:30.281Z,100789.00
2022-07-27T06:29:01.207Z,100798.00
2022-07-27T06:31:35.708Z,100798.00
2022-07-27T06:34:11.538Z,100799.00
2022-07-27T06:36:42.605Z,100793.00
2022-07-27T06:39:11.121Z,100805.00
2022-07-27T06:41:39.248Z,100809.00
2022-07-27T06:44:09.174Z,100802.00
2022-07-27T06:46:37.344Z,100806.00
2022-07-27T06:49:05.498Z,100801.00
2022-07-27T06:51:33.563Z,100798.00
2022-07-27T06:54:01.512Z,100801.00
2022-07-27T06:56:29.515Z,100802.00
2022-07-27T06:58:57.600Z,100797.00
2022-07-27T07:01:25.937Z,100801.00
2022-07-27T07:03:56.404Z,100800.00
2022-07-27T07:06:24.493Z,100803.00
2022-07-27T07:08:52.944Z,100797.00
2022-07-27T07:11:21.437Z,100798.00
2022-07-27T07:13:49.333Z,100802.00
2022-07-27T07:16:17.494Z,100792.00
2022-07-27T07:18:50.224Z,100796.00
2022-07-27T07:21:20.149Z,100797.00
2022-07-27T07:23:48.056Z,100793.00
2022-07-27T07:26:16.058Z,100790.00
2022-07-27T07:28:44.120Z,100795.00
2022-07-27T07:31:12.377Z,100788.00
2022-07-27T07:33:40.949Z,100802.00
2022-07-27T07:36:13.746Z,100797.00
2022-07-27T07:38:43.126Z,100795.00
2022-07-27T07:41:11.460Z,100797.00
2022-07-27T07:43:40.346Z,100794.00
2022-07-27T07:46:09.041Z,100792.00
2022-07-27T07:48:39.242Z,100788.00
2022-07-27T07:51:07.281Z,100789.00
2022-07-27T07:53:40.865Z,100794.00
2022-07-27T07:56:09.588Z,100788.00
2022-07-27T07:58:37.547Z,100789.00
2022-07-27T08:01:05.684Z,100787.00
2022-07-27T08:03:33.731Z,100792.00
2022-07-27T08:06:01.849Z,100796.00
2022-07-27T08:08:31.170Z,100786.00
2022-07-27T08:10:59.363Z,100786.00
2022-07-27T08:13:27.340Z,100793.00
2022-07-27T08:15:55.395Z,100798.00
2022-07-27T08:18:23.378Z,100799.00
2022-07-27T08:20:51.456Z,100799.00
2022-07-27T08:23:19.908Z,100798.00
2022-07-27T08:25:47.996Z,100801.00
2022-07-27T08:28:16.180Z,100812.00
2022-07-27T08:30:44.144Z,100808.00
2022-07-27T08:33:12.203Z,100808.00
2022-07-27T08:35:40.110Z,100802.00
2022-07-27T08:38:09.742Z,100808.00
2022-07-27T08:40:44.088Z,100805.00
2022-07-27T08:43:23.966Z,100814.00
2022-07-27T08:45:55.948Z,100815.00
2022-07-27T08:48:29.302Z,100811.00
2022-07-27T08:50:58.027Z,100808.00
2022-07-27T08:53:26.517Z,100807.00
2022-07-27T08:56:15.009Z,100815.00
2022-07-27T08:58:44.430Z,100812.00
2022-07-27T09:01:12.534Z,100812.00
2022-07-27T09:03:40.762Z,100803.00
2022-07-27T09:06:08.974Z,100804.00
2022-07-27T09:08:38.683Z,100797.00
2022-07-27T09:11:15.550Z,100800.00
2022-07-27T09:13:43.719Z,100811.00
2022-07-27T09:16:18.143Z,100810.00
2022-07-27T09:18:47.176Z,100809.00
2022-07-27T09:21:21.258Z,100816.00
2022-07-27T09:23:54.551Z,100808.00
2022-07-27T09:26:33.160Z,100809.00
2022-07-27T09:29:13.595Z,100805.00
2022-07-27T09:31:51.689Z,100810.00
2022-07-27T09:34:31.418Z,100809.00
2022-07-27T09:37:00.314Z,100793.00
2022-07-27T09:39:30.055Z,100796.00
2022-07-27T09:42:02.053Z,100792.00
2022-07-27T09:44:43.151Z,100788.00
2022-07-27T09:47:27.335Z,100791.00
2022-07-27T09:49:58.446Z,100792.00
2022-07-27T09:52:30.262Z,100785.00
2022-07-27T09:55:07.035Z,100790.00
2022-07-27T09:57:57.077Z,100787.00
2022-07-27T10:00:26.082Z,100791.00
2022-07-27T10:02:55.469Z,100789.00
2022-07-27T10:05:24.517Z,100789.00
2022-07-27T10:07:54.360Z,100784.00
2022-07-27T10:10:23.367Z,100787.00
2022-07-27T10:12:55.289Z,100790.00
2022-07-27T10:15:25.305Z,100786.00
2022-07-27T10:18:17.760Z,100782.00
2022-07-27T10:20:47.546Z,100780.00
2022-07-27T10:23:35.002Z,100790.00
2022-07-27T10:26:19.193Z,100794.00
2022-07-27T10:29:01.479Z,100788.00
2022-07-27T10:31:38.084Z,100791.00
2022-07-27T10:34:08.927Z,100794.00
2022-07-27T10:36:37.302Z,100790.00
2022-07-27T10:39:07.638Z,100797.00
2022-07-27T10:41:40.636Z,100790.00
2022-07-27T10:44:17.977Z,100782.00
2022-07-27T10:46:47.489Z,100780.00
2022-07-27T10:49:24.967Z,100781.00
2022-07-27T10:51:53.764Z,100777.00
2022-07-27T10:54:23.788Z,100786.00
2022-07-27T10:56:56.949Z,100790.00
2022-07-27T11:00:07.036Z,100785.00
2022-07-27T11:02:42.599Z,100788.00
2022-07-27T11:10:51.608Z,100787.00
2022-07-27T11:13:21.800Z,100786.00
2022-07-27T11:16:23.035Z,100788.00
2022-07-27T11:19:04.978Z,100792.00
2022-07-27T11:21:36.463Z,100782.00
2022-07-27T11:24:14.258Z,100785.00
2022-07-27T11:26:45.086Z,100781.00
2022-07-27T11:29:15.205Z,100788.00
2022-07-27T11:31:55.430Z,100782.00
2022-07-27T11:34:28.094Z,100780.00
2022-07-27T11:36:58.603Z,100786.00
2022-07-27T11:39:59.080Z,100786.00
2022-07-27T11:42:20.800Z,100779.00
2022-07-27T11:44:50.014Z,100776.00
2022-07-27T11:47:20.559Z,100774.00
2022-07-27T11:49:48.741Z,100779.00
2022-07-27T11:52:18.741Z,100774.00
2022-07-27T11:54:51.838Z,100777.00
2022-07-27T11:57:21.053Z,100767.00
2022-07-27T11:59:49.221Z,100769.00
2022-07-27T12:02:20.588Z,100766.00
2022-07-27T12:04:50.369Z,100768.00
2022-07-27T12:07:24.238Z,100776.00
2022-07-27T12:09:58.645Z,100769.00
2022-07-27T12:12:30.938Z,100764.00
2022-07-27T12:15:16.632Z,100760.00
2022-07-27T12:17:59.604Z,100762.00
2022-07-27T12:20:35.540Z,100778.00
2022-07-27T12:23:09.062Z,100770.00
2022-07-27T12:25:37.674Z,100756.00
2022-07-27T12:28:07.810Z,100764.00
2022-07-27T12:30:47.405Z,100765.00
2022-07-27T12:33:37.434Z,100779.00
2022-07-27T12:36:07.276Z,100777.00
2022-07-27T12:38:46.601Z,100778.00
2022-07-27T12:41:29.960Z,100777.00
2022-07-27T12:44:18.389Z,100774.00
2022-07-27T12:46:54.072Z,100771.00
2022-07-27T12:49:26.395Z,100777.00
2022-07-27T12:51:57.808Z,100769.00
2022-07-27T12:54:25.842Z,100767.00
2022-07-27T12:56:54.397Z,100764.00
2022-07-27T12:59:23.822Z,100769.00
2022-07-27T13:01:53.247Z,100763.00
2022-07-27T13:04:21.463Z,100754.00
2022-07-27T13:06:49.514Z,100772.00
2022-07-27T13:09:18.065Z,100763.00
2022-07-27T13:11:48.051Z,100763.00
2022-07-27T13:14:16.594Z,100757.00
2022-07-27T13:16:44.647Z,100755.00
2022-07-27T13:19:16.012Z,100753.00
2022-07-27T13:21:44.540Z,100755.00
2022-07-27T13:24:12.876Z,100768.00
2022-07-27T13:26:41.455Z,100770.00
2022-07-27T13:29:10.307Z,100770.00
2022-07-27T13:31:38.532Z,100762.00
2022-07-27T13:34:06.823Z,100759.00
2022-07-27T13:36:34.705Z,100769.00
2022-07-27T13:39:02.753Z,100768.00
2022-07-27T13:41:30.761Z,100763.00
2022-07-27T13:43:58.673Z,100769.00
2022-07-27T13:46:26.810Z,100774.00
2022-07-27T13:48:54.802Z,100781.00
2022-07-27T13:51:25.718Z,100789.00
2022-07-27T13:53:53.984Z,100780.00
2022-07-27T13:56:23.818Z,100776.00
2022-07-27T13:58:51.851Z,100782.00
2022-07-27T14:01:19.824Z,100776.00
2022-07-27T14:03:47.948Z,100776.00
2022-07-27T14:06:16.712Z,100769.00
2022-07-27T14:08:45.383Z,100778.00
2022-07-27T14:11:13.541Z,100770.00
2022-07-27T14:13:41.403Z,100767.00
2022-07-27T14:16:10.282Z,100768.00
2022-07-27T14:18:38.784Z,100765.00
2022-07-27T14:21:09.281Z,100769.00
2022-07-27T14:23:38.094Z,100763.00
2022-07-27T14:26:07.691Z,100767.00
2022-07-27T14:28:36.557Z,100761.00
2022-07-27T14:31:10.147Z,100766.00
2022-07-27T14:33:38.669Z,100764.00
2022-07-27T14:36:08.407Z,100757.00
2022-07-27T14:38:37.293Z,100755.00
2022-07-27T14:41:08.855Z,100759.00
2022-07-27T14:43:37.398Z,100763.00
2022-07-27T14:46:05.331Z,100753.00
2022-07-27T14:49:03.375Z,100761.00
2022-07-27T14:51:21.117Z,100759.00
2022-07-27T14:53:48.997Z,100767.00
2022-07-27T14:56:17.259Z,100761.00
2022-07-27T14:58:45.206Z,100761.00
2022-07-27T15:01:16.611Z,100766.00
2022-07-27T15:03:45.481Z,100768.00
2022-07-27T15:06:13.406Z,100768.00
2022-07-27T15:08:41.538Z,100767.00
2022-07-27T15:11:10.268Z,100763.00
2022-07-27T15:13:38.241Z,100768.00
2022-07-27T15:16:07.324Z,100765.00
2022-07-27T15:18:38.678Z,100765.00
2022-07-27T15:21:13.336Z,100766.00
2022-07-27T15:23:44.953Z,100756.00
2022-07-27T15:26:13.505Z,100764.00
2022-07-27T15:28:42.422Z,100761.00
2022-07-27T15:31:10.876Z,100758.00
2022-07-27T15:33:38.964Z,100761.00
2022-07-27T15:36:07.213Z,100753.00
2022-07-27T15:38:35.459Z,100755.00
2022-07-27T15:41:03.577Z,100754.00
2022-07-27T15:43:31.393Z,100757.00
2022-07-27T15:45:59.342Z,100749.00
2022-07-27T15:48:27.706Z,100749.00
2022-07-27T15:50:58.221Z,100750.00
2022-07-27T15:53:27.129Z,100755.00
2022-07-27T15:55:55.446Z,100752.00
2022-07-27T15:58:23.687Z,100759.00
2022-07-27T16:00:56.081Z,100756.00
2022-07-27T16:03:26.763Z,100751.00
2022-07-27T16:05:55.020Z,100756.00
2022-07-27T16:08:23.183Z,100755.00
2022-07-27T16:10:53.081Z,100752.00
2022-07-27T16:13:23.350Z,100751.00
2022-07-27T16:16:10.777Z,100751.00
2022-07-27T16:18:39.243Z,100749.00
2022-07-27T16:21:07.771Z,100746.00
2022-07-27T16:23:35.658Z,100747.00
2022-07-27T16:26:05.707Z,100749.00
2022-07-27T16:28:39.327Z,100745.00
2022-07-27T16:31:10.558Z,100750.00
2022-07-27T16:33:38.944Z,100748.00
2022-07-27T16:36:08.880Z,100743.00
2022-07-27T16:38:48.054Z,100742.00
2022-07-27T16:41:21.735Z,100742.00
2022-07-27T16:43:49.484Z,100748.00
2022-07-27T16:46:17.899Z,100749.00
2022-07-27T16:48:45.980Z,100754.00
2022-07-27T16:51:16.252Z,100749.00
2022-07-27T16:53:48.414Z,100754.00
2022-07-27T16:56:16.267Z,100755.00
2022-07-27T16:58:44.851Z,100760.00
2022-07-27T17:01:22.031Z,100762.00
2022-07-27T17:03:56.572Z,100765.00
2022-07-27T17:06:25.093Z,100765.00
2022-07-27T17:08:52.981Z,100756.00
2022-07-27T17:11:22.159Z,100767.00
2022-07-27T17:13:51.299Z,100763.00
2022-07-27T17:16:27.862Z,100769.00
2022-07-27T17:18:55.996Z,100765.00
2022-07-27T17:21:23.828Z,100768.00
2022-07-27T17:23:52.426Z,100762.00
2022-07-27T17:26:20.532Z,100764.00
2022-07-27T17:28:52.339Z,100773.00
2022-07-27T17:31:21.555Z,100761.00
2022-07-27T17:33:50.355Z,100764.00
2022-07-27T17:36:18.016Z,100759.00
2022-07-27T17:38:47.286Z,100765.00
2022-07-27T17:41:23.571Z,100766.00
2022-07-27T17:43:52.961Z,100755.00
2022-07-27T17:46:22.033Z,100764.00
2022-07-27T17:48:50.124Z,100761.00
2022-07-27T17:51:18.581Z,100757.00
2022-07-27T17:53:46.990Z,100763.00
2022-07-27T17:56:14.694Z,100754.00
2022-07-27T17:58:44.375Z,100755.00
2022-07-27T18:01:12.322Z,100756.00
2022-07-27T18:03:41.341Z,100753.00
2022-07-27T18:06:08.888Z,100747.00
2022-07-27T18:08:37.056Z,100753.00
2022-07-27T18:11:04.862Z,100748.00
2022-07-27T18:13:37.945Z,100756.00
2022-07-27T18:16:12.363Z,100756.00
2022-07-27T18:18:41.616Z,100751.00
2022-07-27T18:21:11.318Z,100758.00
2022-07-27T18:23:39.844Z,100756.00
2022-07-27T18:26:08.044Z,100752.00
2022-07-27T18:28:39.553Z,100754.00
2022-07-27T18:31:10.543Z,100746.00
2022-07-27T18:33:40.662Z,100746.00
2022-07-27T18:36:08.530Z,100753.00
2022-07-27T18:38:35.990Z,100754.00
2022-07-27T18:41:03.650Z,100753.00
2022-07-27T18:43:31.566Z,100758.00
2022-07-27T18:46:02.003Z,100753.00
2022-07-27T18:48:30.073Z,100753.00
2022-07-27T18:50:57.932Z,100756.00
2022-07-27T18:53:25.880Z,100759.00
2022-07-27T18:55:56.509Z,100765.00
2022-07-27T18:58:25.138Z,100762.00
2022-07-27T19:00:54.803Z,100766.00
2022-07-27T19:03:24.496Z,100771.00
2022-07-27T19:05:56.149Z,100762.00
2022-07-27T19:08:24.707Z,100761.00
2022-07-27T19:10:52.687Z,100765.00
2022-07-27T19:13:21.366Z,100767.00
2022-07-27T19:15:49.446Z,100772.00
2022-07-27T19:18:17.411Z,100777.00
2022-07-27T19:20:45.385Z,100787.00
2022-07-27T19:23:13.685Z,100782.00
2022-07-27T19:25:41.848Z,100790.00
2022-07-27T19:28:09.920Z,100796.00
2022-07-27T19:30:39.120Z,100796.00
2022-07-27T19:33:07.292Z,100794.00
2022-07-27T19:35:35.399Z,100797.00
2022-07-27T19:38:04.807Z,100798.00
2022-07-27T19:40:44.151Z,100807.00
2022-07-27T19:43:13.159Z,100798.00
2022-07-27T19:45:41.671Z,100804.00
2022-07-27T19:48:09.557Z,100798.00
2022-07-27T19:50:37.423Z,100810.00
2022-07-27T19:53:05.594Z,100811.00
2022-07-27T19:55:33.766Z,100812.00
2022-07-27T19:58:02.643Z,100814.00
2022-07-27T20:00:33.905Z,100824.00
2022-07-27T20:03:02.070Z,100820.00
2022-07-27T20:05:30.171Z,100816.00
2022-07-27T20:07:58.260Z,100818.00
2022-07-27T20:10:26.593Z,100827.00
2022-07-27T20:12:57.563Z,100821.00
2022-07-27T20:15:25.983Z,100818.00
2022-07-27T20:17:53.556Z,100827.00
2022-07-27T20:20:21.264Z,100824.00
2022-07-27T20:22:48.933Z,100832.00
2022-07-27T20:25:18.685Z,100826.00
2022-07-27T20:27:47.532Z,100812.00
2022-07-27T20:30:20.218Z,100825.00
2022-07-27T20:32:49.327Z,100824.00
2022-07-27T20:35:18.386Z,100828.00
2022-07-27T20:37:47.606Z,100835.00
2022-07-27T20:40:16.028Z,100834.00
2022-07-27T20:42:44.058Z,100831.00
2022-07-27T20:45:14.761Z,100833.00
2022-07-27T20:47:43.751Z,100843.00
2022-07-27T20:50:14.459Z,100844.00
2022-07-27T20:52:42.903Z,100853.00
2022-07-27T20:55:12.203Z,100838.00
2022-07-27T20:57:40.139Z,100850.00
2022-07-27T21:00:09.624Z,100852.00
2022-07-27T21:02:38.029Z,100859.00
2022-07-27T21:05:07.510Z,100858.00
2022-07-27T21:07:35.348Z,100856.00
2022-07-27T21:10:03.878Z,100859.00
2022-07-27T21:12:31.623Z,100861.00
2022-07-27T21:15:00.510Z,100866.00
2022-07-27T21:17:28.530Z,100870.00
2022-07-27T21:19:56.710Z,100864.00
2022-07-27T21:22:24.315Z,100869.00
2022-07-27T21:24:52.616Z,100862.00
2022-07-27T21:27:21.507Z,100871.00
2022-07-27T21:29:49.573Z,100871.00
2022-07-27T21:32:18.306Z,100871.00
2022-07-27T21:34:45.684Z,100869.00
2022-07-27T21:37:13.373Z,100867.00
2022-07-27T21:39:41.233Z,100873.00
2022-07-27T21:42:08.815Z,100879.00
2022-07-27T21:44:37.720Z,100880.00
2022-07-27T21:47:13.089Z,100884.00
2022-07-27T21:49:41.445Z,100887.00
2022-07-27T21:52:09.264Z,100887.00
2022-07-27T21:54:36.625Z,100885.00
2022-07-27T21:57:04.338Z,100887.00
2022-07-27T21:59:31.925Z,100883.00
2022-07-27T22:02:01.138Z,100882.00
2022-07-27T22:04:29.231Z,100889.00
2022-07-27T22:06:57.200Z,100890.00
2022-07-27T22:09:25.082Z,100888.00
2022-07-27T22:11:52.674Z,100892.00
2022-07-27T22:14:24.277Z,100889.00
2022-07-27T22:16:53.247Z,100883.00
2022-07-27T22:19:21.185Z,100884.00
2022-07-27T22:21:49.226Z,100881.00
2022-07-27T22:24:17.568Z,100886.00
2022-07-27T22:26:45.676Z,100885.00
2022-07-27T22:29:13.722Z,100889.00
2022-07-27T22:31:42.316Z,100896.00
2022-07-27T22:34:10.368Z,100901.00
2022-07-27T22:36:45.923Z,100900.00
2022-07-27T22:39:13.890Z,100898.00
2022-07-27T22:41:41.767Z,100903.00
2022-07-27T22:44:09.768Z,100907.00
2022-07-27T22:46:38.319Z,100901.00
2022-07-27T22:49:06.209Z,100900.00
2022-07-27T22:51:50.355Z,100905.00
2022-07-27T22:54:24.005Z,100904.00
2022-07-27T22:56:52.209Z,100901.00
2022-07-27T22:59:20.920Z,100899.00
2022-07-27T23:01:49.083Z,100908.00
2022-07-27T23:04:18.126Z,100907.00
2022-07-27T23:06:46.574Z,100910.00
2022-07-27T23:09:14.908Z,100909.00
2022-07-27T23:11:43.111Z,100904.00
2022-07-27T23:14:11.985Z,100913.00
2022-07-27T23:16:40.524Z,100914.00
2022-07-27T23:19:08.592Z,100907.00
2022-07-27T23:21:37.481Z,100904.00
2022-07-27T23:24:05.532Z,100904.00
2022-07-27T23:26:33.590Z,100905.00
2022-07-27T23:29:02.056Z,100908.00
2022-07-27T23:31:32.292Z,100903.00
2022-07-27T23:34:00.640Z,100903.00
2022-07-27T23:36:28.692Z,100905.00
2022-07-27T23:38:56.846Z,100908.00
2022-07-27T23:41:24.801Z,100913.00
2022-07-27T23:43:52.654Z,100910.00
2022-07-27T23:46:20.598Z,100907.00
2022-07-27T23:48:49.045Z,100914.00
2022-07-27T23:51:18.814Z,100918.00
2022-07-27T23:53:47.782Z,100914.00
2022-07-27T23:56:16.193Z,100928.00
2022-07-27T23:58:45.141Z,100930.00
